Time;durP1;ratioP1;P1;durP2;ratioP2;P2;SDS_P1;SDS_P2;PMS_P1;PMS_P2;Temp;Humidity;BMP_temperature;BMP_pressure;BME280_temperature;BME280_humidity;BME280_pressure;Samples;Min_cycle;Max_cycle;Signal;HPM_P1;HPM_P2
2023/10/24 00:00:04;;;;;;;19.27;5.40;;;;;;;11.81;100.00;95028.91;6308689;22;20007;-64
2023/10/24 00:02:29;;;;;;;17.95;4.78;;;;;;;11.76;100.00;95036.50;6309000;22;20014;-64
2023/10/24 00:04:55;;;;;;;19.70;5.30;;;;;;;11.71;100.00;95037.00;6281668;22;20503;-64
2023/10/24 00:07:20;;;;;;;17.33;5.15;;;;;;;11.71;100.00;95029.09;6281584;22;20355;-64
2023/10/24 00:09:45;;;;;;;13.75;4.90;;;;;;;11.67;100.00;95030.41;6308913;22;19995;-64
2023/10/24 00:12:11;;;;;;;16.55;4.78;;;;;;;11.67;100.00;95027.78;6280879;22;20527;-63
2023/10/24 00:14:36;;;;;;;22.33;5.65;;;;;;;11.69;100.00;95022.31;6308808;22;20006;-64
2023/10/24 00:17:02;;;;;;;12.63;4.97;;;;;;;11.68;100.00;95033.84;6309445;22;20022;-64
2023/10/24 00:19:27;;;;;;;17.88;5.72;;;;;;;11.68;100.00;95024.16;6308825;22;20026;-64
2023/10/24 00:21:53;;;;;;;15.85;4.70;;;;;;;11.65;100.00;95008.66;6308851;22;19999;-64
2023/10/24 00:24:18;;;;;;;16.95;5.63;;;;;;;11.64;100.00;95019.34;6309009;22;20023;-64
2023/10/24 00:26:43;;;;;;;20.02;4.97;;;;;;;11.63;100.00;95013.28;6308700;22;20005;-64
2023/10/24 00:29:09;;;;;;;21.83;5.50;;;;;;;11.63;100.00;95009.81;6309230;22;20048;-64
2023/10/24 00:31:34;;;;;;;19.80;4.97;;;;;;;11.61;100.00;95007.34;6256565;22;20437;-64
2023/10/24 00:33:59;;;;;;;14.38;5.15;;;;;;;11.60;100.00;95010.94;6309121;22;20385;-63
2023/10/24 00:36:25;;;;;;;16.13;4.70;;;;;;;11.58;100.00;95002.38;6308896;22;20376;-64
2023/10/24 00:38:50;;;;;;;18.17;4.80;;;;;;;11.61;100.00;95002.88;6308551;22;20493;-64
2023/10/24 00:41:16;;;;;;;26.75;5.13;;;;;;;11.62;100.00;95003.72;6308775;22;20452;-64
2023/10/24 00:43:41;;;;;;;17.70;4.93;;;;;;;11.61;100.00;94981.00;6308366;22;20033;-64
2023/10/24 00:46:07;;;;;;;21.75;5.65;;;;;;;11.61;100.00;94994.16;6310372;22;20010;-64
2023/10/24 00:48:33;;;;;;;19.48;5.15;;;;;;;11.59;100.00;94993.47;6310816;22;19999;-64
2023/10/24 00:50:59;;;;;;;14.38;4.93;;;;;;;11.60;100.00;94990.69;6310543;22;20096;-64
2023/10/24 00:53:25;;;;;;;24.85;5.00;;;;;;;11.62;100.00;94990.53;6283379;22;19999;-64
2023/10/24 00:55:51;;;;;;;21.67;4.80;;;;;;;11.66;100.00;95009.47;6310481;22;20052;-64
2023/10/24 00:58:17;;;;;;;14.60;5.05;;;;;;;11.63;100.00;94993.97;6309565;22;20000;-64
2023/10/24 01:00:45;;;;;;;18.25;5.13;;;;;;;11.63;100.00;94996.63;6309183;22;20476;-64
2023/10/24 01:03:11;;;;;;;19.73;4.72;;;;;;;11.61;100.00;94994.97;6310135;22;20057;-64
2023/10/24 01:05:38;;;;;;;18.75;4.95;;;;;;;11.61;100.00;94992.34;6310144;22;20019;-64
2023/10/24 01:08:03;;;;;;;18.52;5.05;;;;;;;11.64;100.00;94978.00;6308967;22;20026;-64
2023/10/24 01:10:29;;;;;;;23.45;5.03;;;;;;;11.66;100.00;95001.56;6310098;22;20002;-64
2023/10/24 01:13:09;;;;;;;13.90;5.07;;;;;;;11.65;100.00;94989.38;6234812;22;20063;-64
2023/10/24 01:15:35;;;;;;;19.85;4.95;;;;;;;11.66;100.00;94994.50;6310250;22;20006;-64
2023/10/24 01:18:02;;;;;;;13.65;5.30;;;;;;;11.68;100.00;94994.31;6309807;22;20003;-64
2023/10/24 01:20:28;;;;;;;16.67;5.15;;;;;;;11.69;100.00;94977.50;6309988;22;20007;-64
2023/10/24 01:22:53;;;;;;;18.30;4.68;;;;;;;11.70;100.00;94972.06;6310008;22;20009;-64
2023/10/24 01:25:20;;;;;;;16.23;4.70;;;;;;;11.69;100.00;94983.59;6310316;22;19999;-64
2023/10/24 01:27:45;;;;;;;11.40;4.35;;;;;;;11.68;100.00;94995.13;6310320;22;20000;-64
2023/10/24 01:30:12;;;;;;;21.20;5.28;;;;;;;11.68;100.00;94973.22;6309906;22;20370;-64
2023/10/24 01:32:38;;;;;;;23.85;6.03;;;;;;;11.69;100.00;94954.59;6310385;22;20013;-64
2023/10/24 01:35:05;;;;;;;17.13;5.13;;;;;;;11.65;100.00;94968.28;6310374;22;20082;-64
2023/10/24 01:37:30;;;;;;;17.30;5.72;;;;;;;11.64;100.00;94962.19;6310159;22;20058;-63
2023/10/24 01:39:55;;;;;;;20.17;6.10;;;;;;;11.61;100.00;94959.91;6309965;22;20011;-63
2023/10/24 01:42:21;;;;;;;16.75;5.60;;;;;;;11.56;100.00;94946.38;6282933;22;20412;-64
2023/10/24 01:44:46;;;;;;;21.30;5.85;;;;;;;11.53;100.00;94938.78;6282334;22;20459;-64
2023/10/24 01:47:12;;;;;;;16.85;5.45;;;;;;;11.54;100.00;94932.53;6282699;22;20099;-64
2023/10/24 01:49:37;;;;;;;21.08;5.43;;;;;;;11.56;100.00;94946.38;6310132;22;20452;-64
2023/10/24 01:52:03;;;;;;;23.05;6.00;;;;;;;11.64;100.00;94945.53;6309977;22;20525;-64
2023/10/24 01:54:28;;;;;;;14.35;4.78;;;;;;;11.68;100.00;94925.75;6310067;22;20527;-64
2023/10/24 01:56:54;;;;;;;21.75;5.65;;;;;;;11.69;100.00;94930.03;6309290;22;20023;-64
2023/10/24 01:59:19;;;;;;;22.77;5.90;;;;;;;11.67;100.00;94932.84;6309760;22;20015;-64
2023/10/24 02:01:44;;;;;;;21.55;6.07;;;;;;;11.65;100.00;94929.56;6309965;22;20011;-64
2023/10/24 02:04:10;;;;;;;22.23;5.88;;;;;;;11.65;100.00;94931.38;6283092;22;20011;-64
2023/10/24 02:06:35;;;;;;;25.75;6.40;;;;;;;11.65;100.00;94918.19;6310010;22;20003;-64
2023/10/24 02:09:01;;;;;;;21.45;5.68;;;;;;;11.62;100.00;94911.44;6310069;22;20026;-64
2023/10/24 02:11:26;;;;;;;19.10;5.35;;;;;;;11.62;100.00;94906.19;6308696;22;20637;-64
2023/10/24 02:13:51;;;;;;;18.50;6.20;;;;;;;11.66;100.00;94898.72;6309593;22;20006;-64
2023/10/24 02:16:17;;;;;;;23.58;6.18;;;;;;;11.69;100.00;94885.22;6256703;22;19996;-64
2023/10/24 02:18:42;;;;;;;18.33;6.10;;;;;;;11.69;100.00;94885.22;6309626;22;20031;-64
2023/10/24 02:21:08;;;;;;;23.65;6.32;;;;;;;11.83;100.00;94879.25;6282417;22;20742;-64
2023/10/24 02:23:37;;;;;;;21.85;5.53;;;;;;;11.81;100.00;94883.03;6281651;22;20007;-64
2023/10/24 02:26:02;;;;;;;22.95;5.20;;;;;;;11.75;100.00;94874.00;6282223;22;20082;-64
2023/10/24 02:28:28;;;;;;;13.70;6.20;;;;;;;11.77;100.00;94873.81;6309287;22;20070;-64
2023/10/24 02:30:53;;;;;;;15.50;6.07;;;;;;;11.74;100.00;94875.81;6309581;22;20114;-64
2023/10/24 02:33:19;;;;;;;22.15;7.10;;;;;;;11.75;100.00;94872.19;6282165;22;20048;-64
2023/10/24 02:35:44;;;;;;;24.45;6.38;;;;;;;11.75;100.00;94874.81;6281696;22;20002;-64
2023/10/24 02:38:10;;;;;;;17.08;5.43;;;;;;;11.75;100.00;94864.28;6308828;22;20053;-64
2023/10/24 02:40:35;;;;;;;19.70;5.47;;;;;;;11.77;100.00;94868.56;6282093;22;19999;-64
2023/10/24 02:43:00;;;;;;;22.70;5.65;;;;;;;11.77;100.00;94861.47;6282389;22;20003;-64
2023/10/24 02:45:26;;;;;;;20.80;5.50;;;;;;;11.77;100.00;94848.28;6309420;22;20417;-64
2023/10/24 02:47:51;;;;;;;18.67;5.55;;;;;;;11.79;100.00;94877.09;6282052;22;20078;-64
2023/10/24 02:50:17;;;;;;;13.52;4.38;;;;;;;11.75;100.00;94869.53;6309216;22;20081;-64
2023/10/24 02:52:42;;;;;;;19.90;5.68;;;;;;;11.80;100.00;94870.84;6281796;22;20030;-64
2023/10/24 02:55:08;;;;;;;14.55;4.90;;;;;;;11.79;100.00;94861.28;6309297;22;20022;-64
2023/10/24 02:57:34;;;;;;;14.82;5.28;;;;;;;11.79;100.00;94856.00;6282537;22;20015;-64
2023/10/24 02:59:59;;;;;;;28.13;11.43;;;;;;;11.78;100.00;94846.47;6309389;22;20007;-64
2023/10/24 03:02:25;;;;;;;20.98;8.15;;;;;;;11.82;100.00;94834.56;6309309;22;19995;-64
2023/10/24 03:04:50;;;;;;;16.00;6.68;;;;;;;11.84;100.00;94848.44;6281823;22;20494;-64
2023/10/24 03:07:16;;;;;;;20.33;5.93;;;;;;;11.87;100.00;94846.25;6309158;22;19999;-64
2023/10/24 03:09:41;;;;;;;21.38;5.35;;;;;;;11.92;100.00;94840.47;6309175;22;20057;-64
2023/10/24 03:12:09;;;;;;;16.25;5.60;;;;;;;11.98;100.00;94829.25;6309220;22;19995;-64
2023/10/24 03:14:36;;;;;;;19.63;5.43;;;;;;;11.96;100.00;94831.22;6309511;22;20010;-64
2023/10/24 03:17:01;;;;;;;19.15;5.25;;;;;;;12.26;100.00;94825.34;6308948;22;19999;-64
2023/10/24 03:19:27;;;;;;;17.55;5.63;;;;;;;12.05;100.00;94821.50;6308868;22;20061;-64
2023/10/24 03:21:53;;;;;;;20.55;5.13;;;;;;;12.21;100.00;94820.59;6281474;22;20010;-64
2023/10/24 03:24:18;;;;;;;23.98;5.43;;;;;;;12.26;100.00;94820.88;6307441;22;19995;-64
2023/10/24 03:26:44;;;;;;;14.57;5.35;;;;;;;12.27;100.00;94817.28;6308802;22;20014;-64
2023/10/24 03:29:09;;;;;;;23.58;6.00;;;;;;;12.24;100.00;94809.69;6281652;22;19995;-64
2023/10/24 03:31:36;;;;;;;16.92;5.10;;;;;;;12.20;100.00;94810.22;6281800;22;20003;-64
2023/10/24 03:34:01;;;;;;;28.05;6.25;;;;;;;12.16;100.00;94809.72;6309282;22;20007;-64
2023/10/24 03:36:27;;;;;;;20.80;5.78;;;;;;;12.12;100.00;94814.53;6309349;22;20007;-64
2023/10/24 03:38:52;;;;;;;15.98;5.28;;;;;;;12.10;100.00;94827.06;6308945;22;20010;-64
2023/10/24 03:41:18;;;;;;;14.07;5.35;;;;;;;12.10;100.00;94815.72;6281129;22;19999;-64
2023/10/24 03:43:49;;;;;;;15.95;5.75;;;;;;;12.06;100.00;94815.22;6308619;22;20403;-64
2023/10/24 03:46:14;;;;;;;23.63;5.80;;;;;;;12.02;100.00;94809.47;6282645;22;20080;-64
2023/10/24 03:48:41;;;;;;;21.27;7.18;;;;;;;11.99;100.00;94806.34;6309331;22;20000;-64
2023/10/24 03:51:06;;;;;;;23.23;6.10;;;;;;;12.00;100.00;94806.16;6308722;22;20011;-64
2023/10/24 03:53:31;;;;;;;21.08;6.30;;;;;;;12.03;100.00;94797.09;6309282;22;20003;-64
2023/10/24 03:55:58;;;;;;;16.17;6.50;;;;;;;12.03;100.00;94794.47;6308569;22;20011;-64
2023/10/24 03:58:24;;;;;;;18.35;5.45;;;;;;;12.01;100.00;94802.53;6307333;22;20003;-64
2023/10/24 04:00:49;;;;;;;22.55;6.18;;;;;;;11.99;100.00;94809.78;6280786;22;19999;-64
2023/10/24 04:03:15;;;;;;;24.17;6.30;;;;;;;11.98;100.00;94805.50;6281098;22;20006;-64
2023/10/24 04:05:40;;;;;;;20.52;6.60;;;;;;;11.98;100.00;94820.53;6281440;22;20000;-64
2023/10/24 04:08:05;;;;;;;23.35;6.50;;;;;;;11.97;100.00;94838.16;6308597;22;20055;-64
2023/10/24 04:10:34;;;;;;;20.02;6.75;;;;;;;11.93;100.00;94836.84;6281606;22;19995;-64
2023/10/24 04:12:59;;;;;;;24.85;8.57;;;;;;;11.94;100.00;94840.31;6308914;22;20007;-64
2023/10/24 04:15:25;;;;;;;24.33;7.63;;;;;;;11.92;100.00;94866.84;6308805;22;19999;-63
2023/10/24 04:17:51;;;;;;;18.00;6.72;;;;;;;11.93;100.00;94873.78;6309117;22;20007;-64
2023/10/24 04:20:16;;;;;;;24.30;7.60;;;;;;;11.92;100.00;94892.41;6310106;22;19999;-65
2023/10/24 04:22:42;;;;;;;21.38;6.60;;;;;;;11.90;100.00;94884.66;6310706;22;19996;-64
2023/10/24 04:25:07;;;;;;;23.80;6.57;;;;;;;11.96;100.00;94883.19;6310488;22;20164;-64
2023/10/24 04:27:33;;;;;;;22.13;6.65;;;;;;;11.93;100.00;94915.97;6283200;22;20013;-64
2023/10/24 04:29:59;;;;;;;17.65;6.10;;;;;;;11.89;100.00;94918.13;6311093;22;20007;-65
2023/10/24 04:32:24;;;;;;;20.45;6.68;;;;;;;11.97;100.00;94892.72;6310550;22;19995;-65
2023/10/24 04:34:51;;;;;;;21.98;6.60;;;;;;;12.04;100.00;94878.69;6310786;22;20003;-65
2023/10/24 04:37:19;;;;;;;17.83;6.10;;;;;;;12.04;100.00;94862.88;6310698;22;20032;-64
2023/10/24 04:39:45;;;;;;;18.73;6.50;;;;;;;11.92;100.00;94866.84;6310627;22;20071;-64
2023/10/24 04:42:10;;;;;;;17.70;6.22;;;;;;;12.00;100.00;94863.38;6310099;22;20586;-64
2023/10/24 04:44:36;;;;;;;23.13;7.03;;;;;;;11.92;100.00;94851.03;6283163;22;20002;-64
2023/10/24 04:47:01;;;;;;;17.10;7.55;;;;;;;12.17;100.00;94845.69;6283240;22;20095;-64
2023/10/24 04:49:27;;;;;;;19.08;6.25;;;;;;;12.23;100.00;94836.25;6310695;22;20084;-64
2023/10/24 04:51:52;;;;;;;24.98;6.72;;;;;;;12.04;100.00;94833.03;6310564;22;20006;-64
2023/10/24 04:54:18;;;;;;;18.48;5.68;;;;;;;12.09;100.00;94840.44;6283305;22;20070;-64
2023/10/24 04:56:43;;;;;;;19.65;6.30;;;;;;;12.16;100.00;94857.22;6309989;22;20027;-64
2023/10/24 04:59:09;;;;;;;21.95;7.45;;;;;;;12.20;100.00;94850.59;6309913;22;20007;-63
2023/10/24 05:01:37;;;;;;;23.58;7.63;;;;;;;12.14;100.00;94849.47;6310408;22;20044;-63
2023/10/24 05:04:06;;;;;;;20.08;6.53;;;;;;;12.03;100.00;94863.06;6283613;22;20027;-64
2023/10/24 05:06:33;;;;;;;21.85;6.30;;;;;;;12.01;100.00;94857.94;6310646;22;20006;-64
2023/10/24 05:08:59;;;;;;;16.85;6.07;;;;;;;11.99;100.00;94849.34;6310097;22;20021;-64
2023/10/24 05:11:25;;;;;;;12.57;6.10;;;;;;;11.96;100.00;94841.78;6309245;22;20450;-64
2023/10/24 05:13:51;;;;;;;21.08;6.50;;;;;;;11.94;100.00;94835.06;6309837;22;19999;-64
2023/10/24 05:16:16;;;;;;;19.27;6.70;;;;;;;11.94;100.00;94841.13;6310325;22;19999;-65
2023/10/24 05:18:41;;;;;;;21.23;7.13;;;;;;;11.96;100.00;94838.34;6310351;22;20014;-65
2023/10/24 05:21:07;;;;;;;16.52;6.43;;;;;;;11.97;100.00;94838.16;6310187;22;19996;-65
2023/10/24 05:23:32;;;;;;;21.42;6.95;;;;;;;12.02;100.00;94833.19;6282053;22;20006;-64
2023/10/24 05:25:59;;;;;;;16.13;5.90;;;;;;;11.99;100.00;94822.97;6310132;22;19995;-64
2023/10/24 05:28:24;;;;;;;20.17;6.57;;;;;;;11.97;100.00;94811.78;6309485;22;20056;-65
2023/10/24 05:30:50;;;;;;;13.48;5.47;;;;;;;11.97;100.00;94800.41;6310094;22;19999;-64
2023/10/24 05:33:15;;;;;;;19.48;6.57;;;;;;;11.95;100.00;94802.41;6309808;22;19995;-65
2023/10/24 05:35:47;;;;;;;17.45;6.35;;;;;;;11.94;100.00;94796.28;6283096;22;20006;-65
2023/10/24 05:38:13;;;;;;;17.13;5.32;;;;;;;11.95;100.00;94797.94;6309792;22;20460;-66
2023/10/24 05:40:39;;;;;;;19.27;6.03;;;;;;;11.93;100.00;94780.63;6310356;22;20034;-65
2023/10/24 05:43:06;;;;;;;14.27;5.82;;;;;;;11.92;100.00;94781.63;6309685;22;20023;-65
2023/10/24 05:45:31;;;;;;;18.73;6.20;;;;;;;11.90;100.00;94763.34;6310409;22;20424;-64
2023/10/24 05:47:57;;;;;;;18.95;6.07;;;;;;;11.92;100.00;94774.53;6309873;22;20025;-64
2023/10/24 05:50:22;;;;;;;16.38;8.25;;;;;;;11.92;100.00;94777.19;6310655;22;20443;-65
2023/10/24 05:52:48;;;;;;;16.30;6.88;;;;;;;11.93;100.00;94773.56;6309689;22;20007;-65
2023/10/24 05:55:13;;;;;;;17.35;7.32;;;;;;;11.98;100.00;94781.75;6282207;22;20011;-65
2023/10/24 05:57:39;;;;;;;18.27;7.68;;;;;;;11.97;100.00;94774.84;6309821;22;20005;-65
2023/10/24 06:00:05;;;;;;;20.98;10.75;;;;;;;11.95;100.00;94784.75;6309637;22;20624;-65
2023/10/24 06:02:30;;;;;;;23.33;9.05;;;;;;;11.92;100.00;94798.28;6310380;22;20025;-65
2023/10/24 06:04:56;;;;;;;17.27;8.05;;;;;;;11.97;100.00;94806.50;6282538;22;20003;-65
2023/10/24 06:07:21;;;;;;;21.60;7.40;;;;;;;11.95;100.00;94811.13;6310084;22;19995;-65
2023/10/24 06:09:46;;;;;;;15.27;6.90;;;;;;;11.89;100.00;94825.00;6282584;22;19999;-65
2023/10/24 06:12:13;;;;;;;13.85;7.43;;;;;;;11.85;100.00;94844.81;6309722;22;19999;-65
2023/10/24 06:14:38;;;;;;;13.32;6.95;;;;;;;11.86;100.00;94854.38;6282619;22;20003;-65
2023/10/24 06:17:04;;;;;;;14.52;7.35;;;;;;;11.90;100.00;94850.38;6309961;22;20489;-65
2023/10/24 06:19:29;;;;;;;12.98;6.30;;;;;;;11.83;100.00;94842.31;6309407;22;20003;-66
2023/10/24 06:21:55;;;;;;;12.98;5.93;;;;;;;11.92;100.00;94829.94;6309079;22;20003;-66
2023/10/24 06:24:20;;;;;;;14.15;6.65;;;;;;;11.87;100.00;94819.09;6309520;22;20030;-65
2023/10/24 06:26:46;;;;;;;11.82;6.93;;;;;;;11.77;100.00;94831.63;6281870;22;20070;-65
2023/10/24 06:29:11;;;;;;;10.05;6.18;;;;;;;11.68;100.00;94826.41;6308792;22;20055;-65
2023/10/24 06:31:36;;;;;;;13.82;6.68;;;;;;;11.66;100.00;94815.19;6308609;22;20038;-64
2023/10/24 06:34:03;;;;;;;11.48;6.85;;;;;;;11.63;100.00;94805.00;6308829;22;20003;-65
2023/10/24 06:36:29;;;;;;;8.65;6.03;;;;;;;11.64;100.00;94817.19;6309144;22;19999;-65
2023/10/24 06:38:54;;;;;;;11.40;6.70;;;;;;;11.65;100.00;94823.28;6307663;22;20066;-65
2023/10/24 06:41:20;;;;;;;11.32;6.30;;;;;;;11.64;100.00;94822.47;6254841;22;19999;-65
2023/10/24 06:43:45;;;;;;;10.75;6.32;;;;;;;11.67;100.00;94824.75;6308469;22;19999;-65
2023/10/24 06:46:10;;;;;;;15.52;8.02;;;;;;;11.70;100.00;94811.22;6309461;22;20035;-65
2023/10/24 06:48:36;;;;;;;11.82;6.07;;;;;;;11.69;100.00;94809.59;6308719;22;20082;-65
2023/10/24 06:51:02;;;;;;;11.27;6.22;;;;;;;11.68;100.00;94807.94;6308720;22;20007;-66
2023/10/24 06:53:28;;;;;;;14.75;8.10;;;;;;;11.69;100.00;94796.41;6309056;22;20002;-66
2023/10/24 06:56:03;;;;;;;14.15;8.20;;;;;;;11.68;100.00;94792.13;6308735;22;20015;-66
2023/10/24 06:58:28;;;;;;;11.15;6.53;;;;;;;11.75;100.00;94785.16;6308538;22;20021;-66
2023/10/24 07:00:54;;;;;;;17.98;8.10;;;;;;;11.72;100.00;94780.22;6281114;22;20022;-66
2023/10/24 07:03:20;;;;;;;15.05;9.82;;;;;;;11.73;100.00;94781.06;6308276;22;20344;-65
2023/10/24 07:05:52;;;;;;;10.05;7.45;;;;;;;11.72;100.00;94782.88;6280892;22;20003;-66
2023/10/24 07:08:19;;;;;;;11.15;7.65;;;;;;;11.72;100.00;94788.16;6309170;22;20033;-66
2023/10/24 07:10:46;;;;;;;14.13;8.30;;;;;;;11.74;100.00;94795.91;6309672;22;19992;-64
2023/10/24 07:13:11;;;;;;;12.95;9.02;;;;;;;11.72;100.00;94790.78;6308950;22;20455;-65
2023/10/24 07:15:38;;;;;;;11.45;8.05;;;;;;;11.74;100.00;94788.78;6308350;22;20007;-66
2023/10/24 07:18:04;;;;;;;12.30;7.95;;;;;;;11.75;100.00;94802.81;6309424;22;20003;-65
2023/10/24 07:20:29;;;;;;;12.88;7.43;;;;;;;11.73;100.00;94794.25;6308773;22;20014;-65
2023/10/24 07:22:55;;;;;;;13.25;7.68;;;;;;;11.77;100.00;94802.63;6308919;22;20000;-66
2023/10/24 07:25:20;;;;;;;13.82;6.88;;;;;;;11.74;100.00;94801.97;6309083;22;20091;-65
2023/10/24 07:27:46;;;;;;;12.15;6.78;;;;;;;11.72;100.00;94809.25;6308836;22;19995;-66
2023/10/24 07:30:11;;;;;;;11.57;6.15;;;;;;;11.74;100.00;94807.25;6309551;22;19999;-66
2023/10/24 07:32:37;;;;;;;16.35;7.35;;;;;;;11.73;100.00;94802.16;6308211;22;19999;-66
2023/10/24 07:35:03;;;;;;;12.32;6.85;;;;;;;11.76;100.00;94796.53;6308936;22;20004;-66
2023/10/24 07:37:29;;;;;;;13.05;7.63;;;;;;;11.79;100.00;94803.28;6281374;22;19999;-66
2023/10/24 07:39:54;;;;;;;12.30;7.50;;;;;;;11.75;100.00;94797.53;6308972;22;19999;-66
2023/10/24 07:42:20;;;;;;;15.68;8.30;;;;;;;11.75;100.00;94808.09;6309002;22;20344;-66
2023/10/24 07:44:45;;;;;;;17.17;8.45;;;;;;;11.71;100.00;94794.41;6309225;22;20011;-66
2023/10/24 07:47:11;;;;;;;16.20;8.07;;;;;;;11.71;100.00;94799.69;6309003;22;20010;-66
2023/10/24 07:49:36;;;;;;;16.63;7.53;;;;;;;11.72;100.00;94803.97;6309031;22;19995;-66
2023/10/24 07:52:03;;;;;;;14.52;7.70;;;;;;;11.75;100.00;94806.25;6307643;22;20002;-66
2023/10/24 07:54:29;;;;;;;13.82;10.55;;;;;;;11.72;100.00;94806.59;6306765;22;20013;-66
2023/10/24 07:56:55;;;;;;;16.70;11.38;;;;;;;11.73;100.00;94807.44;6280296;22;20381;-66
2023/10/24 07:59:20;;;;;;;15.07;9.93;;;;;;;11.78;100.00;94813.03;6308268;22;20034;-66
2023/10/24 08:01:45;;;;;;;11.20;7.10;;;;;;;11.77;100.00;94808.72;6281844;22;20027;-66
2023/10/24 08:04:11;;;;;;;8.43;6.60;;;;;;;11.75;100.00;94819.44;6308821;22;20460;-66
2023/10/24 08:06:36;;;;;;;11.65;6.90;;;;;;;11.73;100.00;94816.16;6281942;22;20456;-66
2023/10/24 08:09:02;;;;;;;8.75;6.75;;;;;;;11.74;100.00;94820.44;6281108;22;20006;-66
2023/10/24 08:11:27;;;;;;;10.77;6.65;;;;;;;11.77;100.00;94816.66;6309241;22;20003;-66
2023/10/24 08:13:53;;;;;;;8.07;5.53;;;;;;;11.71;100.00;94828.69;6308412;22;20436;-66
2023/10/24 08:16:20;;;;;;;9.20;4.97;;;;;;;11.67;100.00;94845.00;6308649;22;20055;-66
2023/10/24 08:18:45;;;;;;;5.25;4.70;;;;;;;11.67;100.00;94848.47;6256772;22;20007;-66
2023/10/24 08:21:12;;;;;;;7.57;5.00;;;;;;;11.69;100.00;94838.59;6281950;22;19999;-66
2023/10/24 08:23:38;;;;;;;7.50;6.72;;;;;;;11.65;100.00;94834.66;6308949;22;20340;-66
2023/10/24 08:26:03;;;;;;;7.15;5.78;;;;;;;11.63;100.00;94848.97;6307635;22;20007;-67
2023/10/24 08:28:29;;;;;;;8.93;5.75;;;;;;;11.64;100.00;94843.56;6309052;22;20015;-67
2023/10/24 08:30:54;;;;;;;5.25;4.75;;;;;;;11.77;100.00;94836.91;6280781;22;20003;-67
2023/10/24 08:33:20;;;;;;;5.63;4.55;;;;;;;11.72;100.00;94806.59;6308516;22;20080;-67
2023/10/24 08:35:46;;;;;;;2.30;2.10;;;;;;;11.83;100.00;94805.41;6308563;22;20019;-67
2023/10/24 08:38:12;;;;;;;6.65;3.95;;;;;;;11.79;100.00;94809.38;6308453;22;20053;-67
2023/10/24 08:40:37;;;;;;;3.22;2.92;;;;;;;11.72;100.00;94822.41;6308656;22;20007;-67
2023/10/24 08:43:03;;;;;;;2.45;1.60;;;;;;;11.75;100.00;94835.25;6308355;22;19995;-67
2023/10/24 08:45:30;;;;;;;1.73;1.50;;;;;;;11.79;100.00;94829.66;6281272;22;20495;-67
2023/10/24 08:47:58;;;;;;;2.65;2.05;;;;;;;11.68;100.00;94851.94;6308652;22;20009;-66
2023/10/24 08:50:24;;;;;;;2.45;2.10;;;;;;;11.61;100.00;94865.00;6308814;22;20015;-66
2023/10/24 08:52:51;;;;;;;1.02;1.02;;;;;;;11.62;100.00;94861.34;6308541;22;20003;-66
2023/10/24 08:55:18;;;;;;;1.13;1.13;;;;;;;11.65;100.00;94861.00;6280897;22;20065;-67
2023/10/24 08:57:45;;;;;;;1.50;1.40;;;;;;;11.58;100.00;94878.47;6307448;22;19999;-67
2023/10/24 09:00:14;;;;;;;1.17;1.17;;;;;;;11.58;100.00;94884.59;6307706;22;20014;-66
2023/10/24 09:02:44;;;;;;;1.42;1.10;;;;;;;11.57;100.00;94887.38;6307717;22;20420;-66
2023/10/24 09:05:12;;;;;;;1.33;1.23;;;;;;;11.50;100.00;94889.03;6308438;22;20006;-66
2023/10/24 09:07:38;;;;;;;1.20;0.90;;;;;;;11.49;100.00;94888.22;6309628;22;20003;-66
2023/10/24 09:10:04;;;;;;;1.67;1.17;;;;;;;11.52;100.00;94887.91;6309823;22;20501;-66
2023/10/24 09:12:30;;;;;;;2.25;1.70;;;;;;;11.42;100.00;94900.41;6309457;22;19995;-66
2023/10/24 09:14:56;;;;;;;2.40;2.20;;;;;;;11.37;100.00;94908.81;6309123;22;20003;-66
2023/10/24 09:17:23;;;;;;;3.60;2.42;;;;;;;11.35;100.00;94918.72;6281982;22;20007;-65
2023/10/24 09:19:49;;;;;;;3.53;2.20;;;;;;;11.30;100.00;94931.56;6309215;22;20003;-66
2023/10/24 09:22:16;;;;;;;1.80;1.67;;;;;;;11.29;100.00;94951.00;6309179;22;20439;-66
2023/10/24 09:24:49;;;;;;;3.30;1.88;;;;;;;11.28;100.00;94957.25;6309486;22;20007;-66
2023/10/24 09:27:15;;;;;;;1.40;1.30;;;;;;;11.30;100.00;94942.09;6309992;22;19999;-66
2023/10/24 09:29:41;;;;;;;1.10;1.10;;;;;;;11.29;100.00;94935.19;6281893;22;19991;-66
2023/10/24 09:32:11;;;;;;;2.45;1.17;;;;;;;11.28;100.00;94926.47;6309317;22;20002;-66
2023/10/24 09:34:41;;;;;;;1.67;1.40;;;;;;;11.36;100.00;94914.28;6308227;22;20070;-66
2023/10/24 09:37:07;;;;;;;1.77;1.13;;;;;;;11.32;100.00;94908.50;6309484;22;20010;-66
2023/10/24 09:39:49;;;;;;;1.00;1.00;;;;;;;11.31;100.00;94901.59;6309005;22;20070;-66
2023/10/24 09:42:20;;;;;;;4.15;1.08;;;;;;;11.39;100.00;94901.59;6309284;22;19999;-66
2023/10/24 09:44:46;;;;;;;1.40;1.30;;;;;;;11.35;100.00;94900.25;6308265;22;19999;-66
2023/10/24 09:47:12;;;;;;;0.85;0.85;;;;;;;11.35;100.00;94910.81;6309089;22;20087;-66
2023/10/24 09:49:38;;;;;;;1.00;1.00;;;;;;;11.34;100.00;94911.78;6282039;22;20441;-66
2023/10/24 09:52:04;;;;;;;1.08;1.08;;;;;;;11.31;100.00;94912.97;6308614;22;20029;-66
2023/10/24 09:54:31;;;;;;;1.83;1.10;;;;;;;11.30;100.00;94913.13;6309508;22;20156;-66
2023/10/24 09:56:56;;;;;;;1.02;0.88;;;;;;;11.29;100.00;94914.09;6282211;22;20099;-66
2023/10/24 09:59:24;;;;;;;0.93;0.93;;;;;;;11.27;100.00;94910.81;6309884;22;20034;-65
2023/10/24 10:01:50;;;;;;;0.80;0.80;;;;;;;11.27;100.00;94916.09;6308562;22;20113;-66
2023/10/24 10:04:17;;;;;;;1.00;1.00;;;;;;;11.25;100.00;94928.59;6282558;22;20026;-66
2023/10/24 10:06:42;;;;;;;1.10;1.05;;;;;;;11.25;100.00;94939.13;6309564;22;20014;-66
2023/10/24 10:09:11;;;;;;;2.17;2.00;;;;;;;11.42;100.00;94947.88;6308852;22;19999;-65
2023/10/24 10:11:39;;;;;;;1.80;1.50;;;;;;;11.36;100.00;94954.59;6309472;22;20053;-65
2023/10/24 10:14:19;;;;;;;2.00;1.50;;;;;;;11.28;100.00;94959.88;6309073;22;20033;-66
2023/10/24 10:17:12;;;;;;;1.80;1.70;;;;;;;11.34;100.00;94956.59;6281593;22;20409;-66
2023/10/24 10:19:49;;;;;;;1.88;1.52;;;;;;;11.30;100.00;94955.28;6282156;22;20403;-66
2023/10/24 10:22:39;;;;;;;2.00;1.90;;;;;;;11.17;100.00;94964.50;6309496;22;20034;-66
2023/10/24 10:25:29;;;;;;;1.90;1.60;;;;;;;11.18;100.00;94965.31;6282972;22;20010;-66
2023/10/24 10:28:13;;;;;;;2.40;1.88;;;;;;;11.18;100.00;94971.44;6309004;22;20098;-66
2023/10/24 10:30:56;;;;;;;2.03;1.92;;;;;;;11.24;100.00;94974.38;6309278;22;20010;-65
2023/10/24 10:33:24;;;;;;;2.15;2.05;;;;;;;11.25;100.00;94986.56;6308937;22;20010;-65
2023/10/24 10:36:01;;;;;;;1.90;1.80;;;;;;;11.24;100.00;95000.72;6308959;22;19995;-66
2023/10/24 10:38:48;;;;;;;3.95;3.72;;;;;;;11.21;100.00;95001.06;6309118;22;20487;-67
2023/10/24 10:41:23;;;;;;;2.40;2.30;;;;;;;11.21;100.00;94995.78;6310204;22;20010;-66
2023/10/24 10:43:50;;;;;;;2.47;2.28;;;;;;;11.23;100.00;94993.81;6308422;22;20065;-66
2023/10/24 10:46:20;;;;;;;1.80;1.70;;;;;;;11.21;100.00;94982.63;6308137;22;19995;-67
2023/10/24 10:48:49;;;;;;;1.70;1.60;;;;;;;11.15;100.00;94977.00;6308653;22;20007;-66
2023/10/24 10:51:22;;;;;;;1.52;1.48;;;;;;;11.10;100.00;94983.75;6309062;22;20049;-67
2023/10/24 10:53:54;;;;;;;1.80;1.70;;;;;;;11.12;100.00;94993.13;6309697;22;20002;-67
2023/10/24 10:56:23;;;;;;;2.50;2.40;;;;;;;11.08;100.00;94986.53;6282261;22;20045;-66
2023/10/24 10:59:09;;;;;;;3.65;3.45;;;;;;;11.08;100.00;94991.00;6309344;22;20014;-66
2023/10/24 11:01:53;;;;;;;2.45;2.28;;;;;;;11.03;100.00;94987.03;6282038;22;20003;-67
2023/10/24 11:04:19;;;;;;;2.40;2.30;;;;;;;11.02;100.00;94982.75;6309097;22;20005;-66
2023/10/24 11:06:55;;;;;;;3.17;2.50;;;;;;;11.06;100.00;94980.63;6309373;22;20472;-67
2023/10/24 11:09:26;;;;;;;3.03;2.83;;;;;;;11.08;100.00;94977.84;6307586;22;19995;-66
2023/10/24 11:12:27;;;;;;;2.95;2.65;;;;;;;11.10;100.00;94975.84;6281623;22;20002;-66
2023/10/24 11:15:22;;;;;;;2.88;2.67;;;;;;;11.11;100.00;94980.13;6308673;22;20003;-66
2023/10/24 11:17:47;;;;;;;3.25;2.95;;;;;;;11.09;100.00;94992.66;6260659;22;20037;-66